createdAt,value
2023-05-18T00:00:32.852Z,11.50
2023-05-18T00:03:02.312Z,11.40
2023-05-18T00:05:34.504Z,11.40
2023-05-18T00:08:03.150Z,11.30
2023-05-18T00:10:31.367Z,11.30
2023-05-18T00:12:59.550Z,11.20
2023-05-18T00:15:29.472Z,11.20
2023-05-18T00:17:58.704Z,11.20
2023-05-18T00:20:27.615Z,11.10
2023-05-18T00:22:55.750Z,11.00
2023-05-18T00:25:24.276Z,11.00
2023-05-18T00:27:52.394Z,10.90
2023-05-18T00:30:20.720Z,10.90
2023-05-18T00:32:50.222Z,10.80
2023-05-18T00:35:18.410Z,10.80
2023-05-18T00:37:46.679Z,10.80
2023-05-18T00:40:15.124Z,10.80
2023-05-18T00:42:43.282Z,10.80
2023-05-18T00:45:11.993Z,10.80
2023-05-18T00:47:40.212Z,10.80
2023-05-18T00:50:11.018Z,10.80
2023-05-18T00:52:39.653Z,10.80
2023-05-18T00:55:09.374Z,10.80
2023-05-18T00:57:38.345Z,10.80
2023-05-18T01:00:10.806Z,10.80
2023-05-18T01:02:43.109Z,10.80
2023-05-18T01:05:14.185Z,10.80
2023-05-18T01:07:44.169Z,10.80
2023-05-18T01:10:14.525Z,10.80
2023-05-18T01:12:47.143Z,10.80
2023-05-18T01:15:19.144Z,10.70
2023-05-18T01:18:05.369Z,10.70
2023-05-18T01:20:39.023Z,10.70
2023-05-18T01:23:30.827Z,10.70
2023-05-18T01:26:25.089Z,10.70
2023-05-18T01:28:54.733Z,10.70
2023-05-18T01:31:23.088Z,10.60
2023-05-18T01:33:51.434Z,10.60
2023-05-18T01:36:19.741Z,10.60
2023-05-18T01:38:48.366Z,10.50
2023-05-18T01:41:22.551Z,10.50
2023-05-18T01:43:57.046Z,10.50
2023-05-18T01:46:36.190Z,10.50
2023-05-18T01:49:11.391Z,10.50
2023-05-18T01:51:45.610Z,10.50
2023-05-18T01:54:17.547Z,10.50
2023-05-18T01:56:49.869Z,10.50
2023-05-18T01:59:19.187Z,10.40
2023-05-18T02:01:47.648Z,10.50
2023-05-18T02:04:15.877Z,10.40
2023-05-18T02:06:44.065Z,10.40
2023-05-18T02:09:12.230Z,10.40
2023-05-18T02:11:40.362Z,10.40
2023-05-18T02:14:09.854Z,10.40
2023-05-18T02:16:38.099Z,10.40
2023-05-18T02:19:06.480Z,10.40
2023-05-18T02:21:35.712Z,10.30
2023-05-18T02:24:03.858Z,10.30
2023-05-18T02:26:32.159Z,10.30
2023-05-18T02:29:00.297Z,10.30
2023-05-18T02:31:31.115Z,10.30
2023-05-18T02:33:59.585Z,10.30
2023-05-18T02:36:27.676Z,10.30
2023-05-18T02:38:57.404Z,10.30
2023-05-18T02:41:25.925Z,10.30
2023-05-18T02:43:54.021Z,10.20
2023-05-18T02:46:22.305Z,10.20
2023-05-18T02:48:51.962Z,10.20
2023-05-18T02:51:20.124Z,10.20
2023-05-18T02:53:48.414Z,10.20
2023-05-18T02:56:17.804Z,10.10
2023-05-18T02:58:45.974Z,10.00
2023-05-18T03:01:14.107Z,10.00
2023-05-18T03:03:43.364Z,9.90
2023-05-18T03:06:14.089Z,9.90
2023-05-18T03:08:42.641Z,9.90
2023-05-18T03:11:10.879Z,9.80
2023-05-18T03:13:39.016Z,9.70
2023-05-18T03:16:07.372Z,9.70
2023-05-18T03:18:35.639Z,9.70
2023-05-18T03:21:03.948Z,9.70
2023-05-18T03:23:33.545Z,9.60
2023-05-18T03:26:04.214Z,9.60
2023-05-18T03:28:32.378Z,9.60
2023-05-18T03:31:00.631Z,9.60
2023-05-18T03:33:28.953Z,9.50
2023-05-18T03:35:57.252Z,9.50
2023-05-18T03:38:25.419Z,9.50
2023-05-18T03:40:55.272Z,9.50
2023-05-18T03:43:25.744Z,9.50
2023-05-18T03:45:54.239Z,9.50
2023-05-18T03:48:22.878Z,9.50
2023-05-18T03:50:51.270Z,9.50
2023-05-18T03:53:21.601Z,9.50
2023-05-18T03:55:50.363Z,9.50
2023-05-18T03:58:20.784Z,9.50
2023-05-18T04:00:49.834Z,9.60
2023-05-18T04:03:18.177Z,9.60
2023-05-18T04:05:46.524Z,9.60
2023-05-18T04:08:14.976Z,9.60
2023-05-18T04:10:43.596Z,9.60
2023-05-18T04:13:12.266Z,9.60
2023-05-18T04:15:41.981Z,9.70
2023-05-18T04:18:10.437Z,9.70
2023-05-18T04:20:39.114Z,9.70
2023-05-18T04:23:09.728Z,9.70
2023-05-18T04:25:39.410Z,9.70
2023-05-18T04:28:08.362Z,9.80
2023-05-18T04:30:37.877Z,9.80
2023-05-18T04:33:07.879Z,9.80
2023-05-18T04:35:36.246Z,9.90
2023-05-18T04:38:05.530Z,9.90
2023-05-18T04:40:34.504Z,9.90
2023-05-18T04:43:03.478Z,9.90
2023-05-18T04:45:32.024Z,10.00
2023-05-18T04:48:02.139Z,10.00
2023-05-18T04:50:31.794Z,10.10
2023-05-18T04:53:02.384Z,10.10
2023-05-18T04:55:31.300Z,10.10
2023-05-18T04:58:00.671Z,10.20
2023-05-18T05:00:30.300Z,10.20
2023-05-18T05:02:59.653Z,10.30
2023-05-18T05:05:28.212Z,10.30
2023-05-18T05:07:58.906Z,10.30
2023-05-18T05:10:28.181Z,10.40
2023-05-18T05:12:56.435Z,10.40
2023-05-18T05:15:24.663Z,10.50
2023-05-18T05:17:53.076Z,10.50
2023-05-18T05:20:21.566Z,10.60
2023-05-18T05:22:49.947Z,10.60
2023-05-18T05:25:19.785Z,10.70
2023-05-18T05:27:47.916Z,10.80
2023-05-18T05:30:16.344Z,10.90
2023-05-18T05:32:44.724Z,11.00
2023-05-18T05:35:13.024Z,11.00
2023-05-18T05:37:41.375Z,11.10
2023-05-18T05:40:10.706Z,11.20
2023-05-18T05:42:41.710Z,11.20
2023-05-18T05:45:10.488Z,11.30
2023-05-18T05:47:38.645Z,11.30
2023-05-18T05:50:07.602Z,11.30
2023-05-18T05:52:35.733Z,11.30
2023-05-18T05:55:04.158Z,11.30
2023-05-18T05:57:32.311Z,11.40
2023-05-18T06:00:02.492Z,11.40
2023-05-18T06:02:31.173Z,11.40
2023-05-18T06:04:59.494Z,11.40
2023-05-18T06:07:27.725Z,11.50
2023-05-18T06:09:55.893Z,11.50
2023-05-18T06:12:24.177Z,11.60
2023-05-18T06:14:54.346Z,11.70
2023-05-18T06:17:23.889Z,11.70
2023-05-18T06:19:52.024Z,11.80
2023-05-18T06:22:20.257Z,11.90
2023-05-18T06:24:48.446Z,12.00
2023-05-18T06:27:16.918Z,12.00
2023-05-18T06:29:45.174Z,12.10
2023-05-18T06:32:13.981Z,12.10
2023-05-18T06:34:45.931Z,12.20
2023-05-18T06:37:14.226Z,12.30
2023-05-18T06:39:42.354Z,12.40
2023-05-18T06:42:11.400Z,12.40
2023-05-18T06:44:39.512Z,12.50
2023-05-18T06:47:08.492Z,12.60
2023-05-18T06:49:36.632Z,12.60
2023-05-18T06:52:07.078Z,12.70
2023-05-18T06:54:35.229Z,12.80
2023-05-18T06:57:03.401Z,12.90
2023-05-18T06:59:31.759Z,12.90
2023-05-18T07:01:59.969Z,13.00
2023-05-18T07:04:28.577Z,13.10
2023-05-18T07:06:56.934Z,13.10
2023-05-18T07:09:27.883Z,13.20
2023-05-18T07:11:55.992Z,13.30
2023-05-18T07:14:24.099Z,13.40
2023-05-18T07:16:52.437Z,13.50
2023-05-18T07:19:21.276Z,13.60
2023-05-18T07:21:49.774Z,13.80
2023-05-18T07:24:17.981Z,13.90
2023-05-18T07:26:47.549Z,14.00
2023-05-18T07:29:15.686Z,14.10
2023-05-18T07:31:44.063Z,14.20
2023-05-18T07:34:12.192Z,14.30
2023-05-18T07:36:40.439Z,14.40
2023-05-18T07:39:09.720Z,14.50
2023-05-18T07:41:37.825Z,14.60
2023-05-18T07:44:07.430Z,14.70
2023-05-18T07:46:35.770Z,14.70
2023-05-18T07:49:04.004Z,14.90
2023-05-18T07:51:32.375Z,14.90
2023-05-18T07:54:00.644Z,15.10
2023-05-18T07:56:28.961Z,15.20
2023-05-18T07:58:57.185Z,15.30
2023-05-18T08:01:30.119Z,15.50
2023-05-18T08:03:58.397Z,15.60
2023-05-18T08:06:26.700Z,15.80
2023-05-18T08:08:56.824Z,15.90
2023-05-18T08:11:25.071Z,16.10
2023-05-18T08:13:53.218Z,16.20
2023-05-18T08:16:21.535Z,16.30
2023-05-18T08:18:51.194Z,16.50
2023-05-18T08:21:19.435Z,16.60
2023-05-18T08:23:48.436Z,16.80
2023-05-18T08:26:16.558Z,17.00
2023-05-18T08:28:45.460Z,17.20
2023-05-18T08:31:13.642Z,17.40
2023-05-18T08:33:42.172Z,17.60
2023-05-18T08:36:11.900Z,17.70
2023-05-18T08:38:40.034Z,17.80
2023-05-18T08:41:16.346Z,17.90
2023-05-18T08:43:47.709Z,18.00
2023-05-18T08:46:22.293Z,18.10
2023-05-18T08:48:54.205Z,18.20
2023-05-18T08:51:23.968Z,18.30
2023-05-18T08:53:54.798Z,18.40
2023-05-18T08:56:25.164Z,18.40
2023-05-18T08:58:56.907Z,18.50
2023-05-18T09:01:29.281Z,18.60
2023-05-18T09:03:58.570Z,18.70
2023-05-18T09:06:28.968Z,18.80
2023-05-18T09:09:10.826Z,18.90
2023-05-18T09:11:40.484Z,19.10
2023-05-18T09:14:08.778Z,19.20
2023-05-18T09:16:36.954Z,19.40
2023-05-18T09:19:05.222Z,19.60
2023-05-18T09:21:35.135Z,19.80
2023-05-18T09:24:03.352Z,20.00
2023-05-18T09:26:31.980Z,20.20
2023-05-18T09:29:00.593Z,20.40
2023-05-18T09:31:31.542Z,20.60
2023-05-18T09:34:01.264Z,20.80
2023-05-18T09:36:30.525Z,20.90
2023-05-18T09:39:00.010Z,21.00
2023-05-18T09:41:29.342Z,21.20
2023-05-18T09:43:57.466Z,21.30
2023-05-18T09:46:25.645Z,21.40
2023-05-18T09:48:55.346Z,21.50
2023-05-18T09:51:25.799Z,21.70
2023-05-18T09:53:56.509Z,21.80
2023-05-18T09:56:27.232Z,21.90
2023-05-18T09:58:55.739Z,22.00
2023-05-18T10:01:24.377Z,22.10
2023-05-18T10:03:53.440Z,22.20
2023-05-18T10:06:27.695Z,22.30
2023-05-18T10:08:58.616Z,22.30
2023-05-18T10:11:32.920Z,22.40
2023-05-18T10:14:01.428Z,22.50
2023-05-18T10:16:30.164Z,22.50
2023-05-18T10:18:58.578Z,22.60
2023-05-18T10:21:31.881Z,22.60
2023-05-18T10:24:04.171Z,22.60
2023-05-18T10:26:38.281Z,22.60
2023-05-18T10:29:07.979Z,22.70
2023-05-18T10:31:38.481Z,22.70
2023-05-18T10:34:07.278Z,22.70
2023-05-18T10:36:38.026Z,22.70
2023-05-18T10:39:07.301Z,22.70
2023-05-18T10:41:39.224Z,22.70
2023-05-18T10:44:08.538Z,22.80
2023-05-18T10:46:38.514Z,22.80
2023-05-18T10:49:13.224Z,22.80
2023-05-18T10:51:44.240Z,22.90
2023-05-18T10:54:14.417Z,22.90
2023-05-18T10:56:47.810Z,23.00
2023-05-18T10:59:18.435Z,23.10
2023-05-18T11:01:48.741Z,23.20
2023-05-18T11:04:17.394Z,23.30
2023-05-18T11:06:56.813Z,23.50
2023-05-18T11:09:26.402Z,23.70
2023-05-18T11:11:59.054Z,23.80
2023-05-18T11:14:28.401Z,23.90
2023-05-18T11:17:17.254Z,24.00
2023-05-18T11:20:13.118Z,24.10
2023-05-18T11:22:47.554Z,24.10
2023-05-18T11:25:38.066Z,24.20
2023-05-18T11:28:10.237Z,24.20
2023-05-18T11:30:49.976Z,24.30
2023-05-18T11:33:24.348Z,24.30
2023-05-18T11:35:57.238Z,24.30
2023-05-18T11:38:30.630Z,24.20
2023-05-18T11:41:00.869Z,24.20
2023-05-18T11:43:31.480Z,24.10
2023-05-18T11:46:00.661Z,24.10
2023-05-18T11:48:30.516Z,24.20
2023-05-18T11:50:58.917Z,24.40
2023-05-18T11:53:28.267Z,24.60
2023-05-18T11:55:57.171Z,24.70
2023-05-18T11:58:26.251Z,24.70
2023-05-18T12:00:58.042Z,24.70
2023-05-18T12:03:27.511Z,24.70
2023-05-18T12:06:01.471Z,24.80
2023-05-18T12:08:30.298Z,24.80
2023-05-18T12:10:58.538Z,24.80
2023-05-18T12:13:27.699Z,24.70
2023-05-18T12:15:59.200Z,24.60
2023-05-18T12:18:30.085Z,24.50
2023-05-18T12:20:58.202Z,24.40
2023-05-18T12:23:38.144Z,24.40
2023-05-18T12:26:06.527Z,24.40
2023-05-18T12:28:34.693Z,24.40
2023-05-18T12:31:08.422Z,24.40
2023-05-18T12:33:36.641Z,24.40
2023-05-18T12:36:05.111Z,24.50
2023-05-18T12:38:33.234Z,24.60
2023-05-18T12:41:01.388Z,24.60
2023-05-18T12:43:34.897Z,24.60
2023-05-18T12:46:05.152Z,24.60
2023-05-18T12:48:37.281Z,24.70
2023-05-18T12:51:06.102Z,24.70
2023-05-18T12:53:43.097Z,24.80
2023-05-18T12:56:11.683Z,24.80
2023-05-18T12:58:40.991Z,24.90
2023-05-18T13:01:11.399Z,24.90
2023-05-18T13:03:41.910Z,24.90
2023-05-18T13:06:10.850Z,25.00
2023-05-18T13:08:39.161Z,25.10
2023-05-18T13:13:40.142Z,25.10
2023-05-18T13:16:17.335Z,25.10
2023-05-18T13:18:47.813Z,25.00
2023-05-18T13:21:16.186Z,25.00
2023-05-18T13:23:44.434Z,25.00
2023-05-18T13:26:12.930Z,25.00
2023-05-18T13:28:41.305Z,25.00
2023-05-18T13:31:11.662Z,25.00
2023-05-18T13:33:42.506Z,25.10
2023-05-18T13:36:10.929Z,25.10
2023-05-18T13:38:39.291Z,25.20
2023-05-18T13:41:07.624Z,25.20
2023-05-18T13:43:35.777Z,25.30
2023-05-18T13:46:04.089Z,25.30
2023-05-18T13:48:32.287Z,25.20
2023-05-18T13:51:02.115Z,25.00
2023-05-18T13:53:30.300Z,24.90
2023-05-18T13:55:58.424Z,24.80
2023-05-18T13:58:26.624Z,24.70
2023-05-18T14:00:55.490Z,24.70
2023-05-18T14:03:24.519Z,24.70
2023-05-18T14:05:52.857Z,24.70
2023-05-18T14:08:22.389Z,24.70
2023-05-18T14:10:50.514Z,24.70
2023-05-18T14:13:18.675Z,24.60
2023-05-18T14:15:46.984Z,24.50
2023-05-18T14:18:16.544Z,24.50
2023-05-18T14:20:45.181Z,24.40
2023-05-18T14:23:13.291Z,24.40
2023-05-18T14:25:45.878Z,24.40
2023-05-18T14:28:14.386Z,24.30
2023-05-18T14:30:42.557Z,24.20
2023-05-18T14:33:10.757Z,24.20
2023-05-18T14:35:40.141Z,24.10
2023-05-18T14:38:08.472Z,24.20
2023-05-18T14:40:36.633Z,24.20
2023-05-18T14:43:06.288Z,24.30
2023-05-18T14:45:34.434Z,24.40
2023-05-18T14:48:02.640Z,24.30
2023-05-18T14:50:30.961Z,24.20
2023-05-18T14:52:59.259Z,24.20
2023-05-18T14:55:27.606Z,24.10
2023-05-18T14:57:55.901Z,24.20
2023-05-18T15:00:25.793Z,24.20
2023-05-18T15:02:53.938Z,24.20
2023-05-18T15:05:22.057Z,24.20
2023-05-18T15:07:50.171Z,24.10
2023-05-18T15:10:18.327Z,24.10
2023-05-18T15:12:46.472Z,24.00
2023-05-18T15:15:14.677Z,23.90
2023-05-18T15:17:44.323Z,23.80
2023-05-18T15:20:13.361Z,23.70
2023-05-18T15:22:41.762Z,23.70
2023-05-18T15:25:10.437Z,23.60
2023-05-18T15:27:39.116Z,23.50
2023-05-18T15:30:11.833Z,23.50
2023-05-18T15:32:40.151Z,23.40
2023-05-18T15:35:10.822Z,23.30
2023-05-18T15:37:38.977Z,23.10
2023-05-18T15:40:08.283Z,23.00
2023-05-18T15:42:36.753Z,22.90
2023-05-18T15:45:05.179Z,22.70
2023-05-18T15:47:33.507Z,22.60
2023-05-18T15:50:01.727Z,22.40
2023-05-18T15:52:31.257Z,22.40
2023-05-18T15:54:59.766Z,22.30
2023-05-18T15:57:27.939Z,22.20
2023-05-18T15:59:56.238Z,22.20
2023-05-18T16:02:25.924Z,22.20
2023-05-18T16:04:54.226Z,22.10
2023-05-18T16:07:22.383Z,22.10
2023-05-18T16:09:51.852Z,22.00
2023-05-18T16:12:19.987Z,21.90
2023-05-18T16:14:48.235Z,21.90
2023-05-18T16:17:16.439Z,21.80
2023-05-18T16:19:44.650Z,21.80
2023-05-18T16:22:12.765Z,21.80
2023-05-18T16:24:41.352Z,21.70
2023-05-18T16:27:10.946Z,21.70
2023-05-18T16:29:39.518Z,21.70
2023-05-18T16:32:08.242Z,21.70
2023-05-18T16:34:36.433Z,21.70
2023-05-18T16:37:04.712Z,21.60
2023-05-18T16:39:32.874Z,21.50
2023-05-18T16:42:01.213Z,21.50
2023-05-18T16:44:30.851Z,21.30
2023-05-18T16:46:59.097Z,21.30
2023-05-18T16:49:27.270Z,21.20
2023-05-18T16:51:55.407Z,21.10
2023-05-18T16:54:23.510Z,21.10
2023-05-18T16:56:51.971Z,21.00
2023-05-18T16:59:20.385Z,20.90
2023-05-18T17:01:49.969Z,20.80
2023-05-18T17:04:18.221Z,20.80
2023-05-18T17:06:46.636Z,20.70
2023-05-18T17:09:16.409Z,20.60
2023-05-18T17:11:44.562Z,20.50
2023-05-18T17:14:12.671Z,20.50
2023-05-18T17:16:41.178Z,20.40
2023-05-18T17:19:11.034Z,20.40
2023-05-18T17:21:39.237Z,20.40
2023-05-18T17:24:08.106Z,20.30
2023-05-18T17:26:36.255Z,20.30
2023-05-18T17:29:04.396Z,20.20
2023-05-18T17:31:32.698Z,20.20
2023-05-18T17:34:00.784Z,20.10
2023-05-18T17:36:31.040Z,20.10
2023-05-18T17:38:59.166Z,20.00
2023-05-18T17:41:27.333Z,19.90
2023-05-18T17:43:55.417Z,19.90
2023-05-18T17:46:23.607Z,19.80
2023-05-18T17:48:51.724Z,19.70
2023-05-18T17:51:19.896Z,19.60
2023-05-18T17:53:49.552Z,19.50
2023-05-18T17:56:18.886Z,19.50
2023-05-18T17:58:47.067Z,19.40
2023-05-18T18:01:15.224Z,19.30
2023-05-18T18:03:44.518Z,19.20
2023-05-18T18:06:12.823Z,19.10
2023-05-18T18:08:41.483Z,19.00
2023-05-18T18:11:11.212Z,18.90
2023-05-18T18:13:39.284Z,18.90
2023-05-18T18:16:07.787Z,18.80
2023-05-18T18:18:37.154Z,18.70
2023-05-18T18:21:06.257Z,18.70
2023-05-18T18:23:34.494Z,18.60
2023-05-18T18:26:03.978Z,18.50
2023-05-18T18:28:34.451Z,18.50
2023-05-18T18:31:03.380Z,18.50
2023-05-18T18:33:32.709Z,18.40
2023-05-18T18:36:01.282Z,18.40
2023-05-18T18:38:29.657Z,18.30
2023-05-18T18:41:01.647Z,18.30
2023-05-18T18:43:30.170Z,18.20
2023-05-18T18:46:00.004Z,18.10
2023-05-18T18:48:28.537Z,18.10
2023-05-18T18:50:56.835Z,18.10
2023-05-18T18:53:25.751Z,18.00
2023-05-18T18:55:54.241Z,17.90
2023-05-18T18:58:24.231Z,17.80
2023-05-18T19:00:52.409Z,17.80
2023-05-18T19:03:22.680Z,17.70
2023-05-18T19:05:51.766Z,17.60
2023-05-18T19:08:20.054Z,17.60
2023-05-18T19:10:48.467Z,17.50
2023-05-18T19:13:16.599Z,17.40
2023-05-18T19:15:45.461Z,17.40
2023-05-18T19:18:14.908Z,17.30
2023-05-18T19:20:44.513Z,17.20
2023-05-18T19:23:12.874Z,17.20
2023-05-18T19:25:41.633Z,17.10
2023-05-18T19:28:09.764Z,17.10
2023-05-18T19:30:37.877Z,17.00
2023-05-18T19:33:06.117Z,17.00
2023-05-18T19:35:34.504Z,16.80
2023-05-18T19:38:04.183Z,16.90
2023-05-18T19:40:32.327Z,16.80
2023-05-18T19:43:01.578Z,16.70
2023-05-18T19:45:30.189Z,16.70
2023-05-18T19:47:58.595Z,16.60
2023-05-18T19:50:26.761Z,16.50
2023-05-18T19:52:55.073Z,16.50
2023-05-18T19:55:24.529Z,16.50
2023-05-18T19:57:52.662Z,16.40
2023-05-18T20:00:20.786Z,16.40
2023-05-18T20:02:49.192Z,16.30
2023-05-18T20:05:18.780Z,16.30
2023-05-18T20:07:47.306Z,16.20
2023-05-18T20:10:15.767Z,16.20
2023-05-18T20:12:45.544Z,16.10
2023-05-18T20:15:14.318Z,16.10
2023-05-18T20:17:42.906Z,16.10
2023-05-18T20:20:12.321Z,16.00
2023-05-18T20:22:40.967Z,15.90
2023-05-18T20:25:09.837Z,15.90
2023-05-18T20:27:38.163Z,15.80
2023-05-18T20:30:09.347Z,15.80
2023-05-18T20:32:37.517Z,15.70
2023-05-18T20:35:06.096Z,15.70
2023-05-18T20:37:35.250Z,15.70
2023-05-18T20:40:08.820Z,15.60
2023-05-18T20:42:40.255Z,15.60
2023-05-18T20:45:10.941Z,15.50
2023-05-18T20:47:41.842Z,15.50
2023-05-18T20:50:11.087Z,15.50
2023-05-18T20:52:39.431Z,15.40
2023-05-18T20:55:09.148Z,15.40
2023-05-18T20:57:39.585Z,15.40
2023-05-18T21:00:10.514Z,15.30
2023-05-18T21:02:39.318Z,15.30
2023-05-18T21:05:08.141Z,15.20
2023-05-18T21:07:40.247Z,15.20
2023-05-18T21:10:09.481Z,15.20
2023-05-18T21:12:37.671Z,15.20
2023-05-18T21:15:06.949Z,15.20
2023-05-18T21:17:36.543Z,15.20
2023-05-18T21:20:05.940Z,15.10
2023-05-18T21:22:34.100Z,15.10
2023-05-18T21:25:05.142Z,15.10
2023-05-18T21:27:33.870Z,15.10
2023-05-18T21:30:02.074Z,15.00
2023-05-18T21:32:30.498Z,15.00
2023-05-18T21:35:00.197Z,15.00
2023-05-18T21:37:28.399Z,15.00
2023-05-18T21:39:56.498Z,15.00
2023-05-18T21:42:24.708Z,14.90
2023-05-18T21:44:52.827Z,14.90
2023-05-18T21:47:21.025Z,14.90
2023-05-18T21:49:49.197Z,14.90
2023-05-18T21:52:18.763Z,14.90
2023-05-18T21:54:47.028Z,14.90
2023-05-18T21:57:15.179Z,14.90
2023-05-18T21:59:43.388Z,14.90
2023-05-18T22:02:11.601Z,15.00
2023-05-18T22:04:39.820Z,15.00
2023-05-18T22:07:08.034Z,14.90
2023-05-18T22:09:37.598Z,15.00
2023-05-18T22:12:06.811Z,15.00
2023-05-18T22:14:34.988Z,15.00
2023-05-18T22:17:03.231Z,15.00
2023-05-18T22:19:31.435Z,15.00
2023-05-18T22:22:01.484Z,15.00
2023-05-18T22:24:29.717Z,15.00
2023-05-18T22:26:59.224Z,15.00
2023-05-18T22:29:27.357Z,14.90
2023-05-18T22:31:55.597Z,14.90
2023-05-18T22:34:23.956Z,14.90
2023-05-18T22:36:52.046Z,14.90
2023-05-18T22:39:20.220Z,14.90
2023-05-18T22:41:48.410Z,14.90
2023-05-18T22:44:17.959Z,14.90
2023-05-18T22:46:46.245Z,14.90
2023-05-18T22:49:15.160Z,14.90
2023-05-18T22:51:43.470Z,14.90
2023-05-18T22:54:11.568Z,14.90
2023-05-18T22:56:40.442Z,14.80
2023-05-18T22:59:10.246Z,14.80
2023-05-18T23:01:39.946Z,14.80
2023-05-18T23:04:08.172Z,14.80
2023-05-18T23:06:36.412Z,14.80
2023-05-18T23:09:04.555Z,14.70
2023-05-18T23:11:34.985Z,14.70
2023-05-18T23:14:03.169Z,14.70
2023-05-18T23:16:31.758Z,14.70
2023-05-18T23:19:02.227Z,14.60
2023-05-18T23:21:31.368Z,14.60
2023-05-18T23:23:59.837Z,14.50
2023-05-18T23:26:28.071Z,14.50
2023-05-18T23:28:56.156Z,14.40
2023-05-18T23:31:24.304Z,14.30
2023-05-18T23:33:53.065Z,14.20
2023-05-18T23:36:22.975Z,14.10
2023-05-18T23:38:52.710Z,14.10
2023-05-18T23:41:21.989Z,14.00
2023-05-18T23:43:50.768Z,13.90
2023-05-18T23:46:19.581Z,13.90
2023-05-18T23:48:48.734Z,13.80
2023-05-18T23:51:18.939Z,13.80
2023-05-18T23:53:49.706Z,13.80
2023-05-18T23:56:18.652Z,13.80
2023-05-18T23:58:47.872Z,13.80
